Time;durP1;ratioP1;P1;durP2;ratioP2;P2;SDS_P1;SDS_P2;PMS_P1;PMS_P2;Temp;Humidity;BMP_temperature;BMP_pressure;BME280_temperature;BME280_humidity;BME280_pressure;Samples;Min_cycle;Max_cycle;Signal;HPM_P1;HPM_P2
2024/03/10 00:00:39;;;;;;;2.42;1.25;;;;;;;6.73;100.00;90974.22;2096278;28;20024;-82
2024/03/10 00:01:40;;;;;;;0.98;0.98;;;;;;;6.59;100.00;90980.16;2096945;28;20020;-85
2024/03/10 00:02:43;;;;;;;1.10;1.00;;;;;;;6.55;100.00;90980.28;2096512;28;20473;-85
2024/03/10 00:03:44;;;;;;;1.10;1.00;;;;;;;6.57;100.00;90980.56;2095836;28;20024;-84
2024/03/10 00:04:45;;;;;;;1.52;1.08;;;;;;;6.49;100.00;90980.13;2107945;28;20373;-83
2024/03/10 00:05:46;;;;;;;1.77;0.98;;;;;;;6.58;100.00;90974.06;2103875;28;20031;-82
2024/03/10 00:06:47;;;;;;;2.78;1.08;;;;;;;6.65;100.00;90975.72;2104863;28;20047;-84
2024/03/10 00:07:48;;;;;;;1.20;1.00;;;;;;;6.58;100.00;90976.72;2097614;28;20107;-85
2024/03/10 00:08:49;;;;;;;0.93;0.93;;;;;;;6.68;100.00;90980.88;2100256;28;20024;-82
2024/03/10 00:09:50;;;;;;;1.10;1.00;;;;;;;6.77;100.00;90974.81;2109348;28;20032;-83
2024/03/10 00:10:51;;;;;;;0.80;0.80;;;;;;;6.70;100.00;90977.78;2111713;28;20031;-87
2024/03/10 00:11:52;;;;;;;0.93;0.93;;;;;;;6.71;100.00;90976.59;2100715;28;20380;-85
2024/03/10 00:12:53;;;;;;;1.58;1.30;;;;;;;6.52;100.00;90979.25;2095202;28;20123;-85
2024/03/10 00:13:55;;;;;;;1.08;0.98;;;;;;;6.56;100.00;90977.19;2111831;28;20023;-85
2024/03/10 00:14:56;;;;;;;1.10;1.00;;;;;;;6.59;100.00;90975.56;2107203;28;20024;-85
2024/03/10 00:15:58;;;;;;;2.55;1.17;;;;;;;6.57;100.00;90978.66;2103725;28;20037;-82
2024/03/10 00:16:59;;;;;;;0.95;0.93;;;;;;;6.56;100.00;90981.75;2104308;28;20016;-83
2024/03/10 00:18:00;;;;;;;0.98;0.93;;;;;;;6.59;100.00;90980.88;2099917;28;20027;-84
2024/03/10 00:19:04;;;;;;;1.02;1.00;;;;;;;6.63;100.00;90978.81;2106435;28;20571;-83
2024/03/10 00:20:06;;;;;;;2.33;1.30;;;;;;;6.62;100.00;90984.53;2103559;28;20020;-83
2024/03/10 00:21:07;;;;;;;1.30;1.20;;;;;;;6.60;100.00;90981.63;2092437;28;20047;-82
2024/03/10 00:22:09;;;;;;;2.08;1.20;;;;;;;6.56;100.00;90982.50;2104092;28;20027;-83
2024/03/10 00:23:11;;;;;;;3.47;1.00;;;;;;;6.71;100.00;90984.53;2103806;28;20511;-85
2024/03/10 00:24:12;;;;;;;1.15;1.05;;;;;;;6.70;100.00;90986.47;2097026;28;20465;-86
2024/03/10 00:25:13;;;;;;;1.90;1.10;;;;;;;6.75;100.00;90983.22;2095058;28;20052;-85
2024/03/10 00:26:15;;;;;;;0.88;0.88;;;;;;;6.89;100.00;90981.13;2103448;28;20042;-86
2024/03/10 00:27:17;;;;;;;2.20;1.10;;;;;;;6.92;100.00;90983.66;2110126;28;20035;-86
2024/03/10 00:28:17;;;;;;;1.20;1.10;;;;;;;6.89;100.00;90984.56;2096001;28;20028;-85
2024/03/10 00:29:18;;;;;;;1.30;1.20;;;;;;;6.90;100.00;90983.38;2092001;28;20553;-86
2024/03/10 00:30:19;;;;;;;0.93;0.90;;;;;;;6.81;100.00;90978.81;2096295;28;20380;-84
2024/03/10 00:31:20;;;;;;;0.95;0.95;;;;;;;6.80;100.00;90976.56;2089280;28;20110;-87
2024/03/10 00:32:21;;;;;;;1.08;0.88;;;;;;;6.74;100.00;90968.47;2088094;28;20124;-85
2024/03/10 00:33:22;;;;;;;1.30;1.20;;;;;;;6.64;100.00;90974.97;2090022;28;20017;-86
2024/03/10 00:34:23;;;;;;;1.42;1.10;;;;;;;6.62;100.00;90965.97;2089665;28;20116;-83
2024/03/10 00:35:30;;;;;;;1.15;1.05;;;;;;;6.60;100.00;90976.31;2089668;28;20485;-85
2024/03/10 00:36:31;;;;;;;3.25;1.38;;;;;;;6.43;100.00;90973.19;2098608;28;20731;-85
2024/03/10 00:37:32;;;;;;;1.33;1.23;;;;;;;6.55;100.00;90959.78;2097839;28;20046;-83
2024/03/10 00:38:34;;;;;;;1.30;1.10;;;;;;;6.65;100.00;90965.09;2096149;28;20031;-85
2024/03/10 00:39:35;;;;;;;1.38;1.02;;;;;;;6.65;100.00;90959.78;2095824;28;20028;-85
2024/03/10 00:40:37;;;;;;;1.13;1.02;;;;;;;6.61;100.00;90959.19;2089605;28;20071;-83
2024/03/10 00:41:39;;;;;;;1.27;1.17;;;;;;;6.56;100.00;90949.91;2088608;28;20831;-84
2024/03/10 00:42:41;;;;;;;1.77;1.52;;;;;;;6.60;100.00;90952.41;2089927;28;20032;-86
2024/03/10 00:43:42;;;;;;;1.20;1.10;;;;;;;6.65;100.00;90957.13;2098218;28;20016;-85
2024/03/10 00:44:43;;;;;;;2.00;1.17;;;;;;;6.71;100.00;90953.41;2105625;28;20019;-83
2024/03/10 00:45:44;;;;;;;3.17;1.30;;;;;;;6.67;100.00;90960.81;2095665;28;20059;-83
2024/03/10 00:46:47;;;;;;;1.58;1.05;;;;;;;6.63;100.00;90956.81;2096279;28;20024;-86
2024/03/10 00:47:48;;;;;;;1.02;1.02;;;;;;;6.68;100.00;90958.91;2095863;28;20077;-84
2024/03/10 00:48:49;;;;;;;1.50;1.40;;;;;;;6.67;100.00;90965.38;2095741;28;20460;-85
2024/03/10 00:49:50;;;;;;;0.98;0.98;;;;;;;6.61;100.00;90964.50;2104625;28;20035;-85
2024/03/10 00:50:51;;;;;;;1.30;1.20;;;;;;;6.56;100.00;90958.59;2114207;28;20047;-87
2024/03/10 00:51:57;;;;;;;1.05;1.05;;;;;;;6.75;100.00;90953.28;2102858;28;20021;-88
2024/03/10 00:52:58;;;;;;;2.05;1.40;;;;;;;6.67;100.00;90958.16;2096456;28;20074;-85
2024/03/10 00:53:59;;;;;;;2.67;1.30;;;;;;;6.69;100.00;90963.03;2092858;28;20440;-82
2024/03/10 00:55:00;;;;;;;2.35;1.40;;;;;;;6.65;100.00;90957.88;2106151;28;20039;-87
2024/03/10 00:56:02;;;;;;;1.20;1.10;;;;;;;6.70;100.00;90959.91;2097818;28;20053;-86
2024/03/10 00:57:04;;;;;;;2.03;1.10;;;;;;;6.74;100.00;90960.50;2094086;28;20505;-84
2024/03/10 00:58:05;;;;;;;1.20;1.10;;;;;;;6.66;100.00;90953.28;2094591;28;20013;-85
2024/03/10 00:59:06;;;;;;;1.20;1.10;;;;;;;6.73;100.00;90960.97;2089456;28;20017;-89
2024/03/10 01:00:10;;;;;;;1.20;1.10;;;;;;;6.79;100.00;90956.53;2093496;28;20082;-84
2024/03/10 01:01:11;;;;;;;1.42;1.13;;;;;;;6.79;100.00;90945.91;2097507;28;20017;-81
2024/03/10 01:02:16;;;;;;;1.20;1.10;;;;;;;6.62;100.00;90939.44;2097730;28;20098;-82
2024/03/10 01:03:17;;;;;;;1.70;1.20;;;;;;;6.57;100.00;90943.41;2097628;28;20066;-84
2024/03/10 01:04:18;;;;;;;1.80;1.02;;;;;;;6.58;100.00;90944.88;2089348;28;20024;-87
2024/03/10 01:05:19;;;;;;;1.23;1.13;;;;;;;6.52;100.00;90941.34;2097904;28;20047;-85
2024/03/10 01:06:21;;;;;;;3.10;1.30;;;;;;;6.61;100.00;90937.97;2103659;28;20027;-86
2024/03/10 01:07:22;;;;;;;3.30;1.23;;;;;;;6.67;100.00;90944.91;2099191;28;20026;-87
2024/03/10 01:08:23;;;;;;;1.08;1.00;;;;;;;6.59;100.00;90945.63;2104336;28;20088;-83
2024/03/10 01:09:24;;;;;;;0.88;0.88;;;;;;;6.60;100.00;90947.84;2103674;28;20457;-85
2024/03/10 01:10:25;;;;;;;1.08;0.90;;;;;;;6.55;100.00;90946.53;2093426;28;20043;-85
2024/03/10 01:11:26;;;;;;;1.45;1.00;;;;;;;6.56;100.00;90942.69;2087463;28;20013;-85
2024/03/10 01:12:28;;;;;;;1.60;1.10;;;;;;;6.44;100.00;90940.91;2096574;28;20023;-85
2024/03/10 01:13:29;;;;;;;0.90;0.90;;;;;;;6.57;100.00;90944.16;2097882;28;20036;-85
2024/03/10 01:14:30;;;;;;;0.73;0.73;;;;;;;6.68;100.00;90953.59;2092330;28;20470;-84
2024/03/10 01:15:34;;;;;;;0.90;0.90;;;;;;;6.64;100.00;90953.75;2083312;28;20076;-86
2024/03/10 01:16:35;;;;;;;0.80;0.80;;;;;;;6.54;100.00;90947.72;2089915;28;20031;-85
2024/03/10 01:17:36;;;;;;;1.08;0.90;;;;;;;6.49;100.00;90945.63;2095653;28;20019;-82
2024/03/10 01:18:37;;;;;;;0.82;0.82;;;;;;;6.57;100.00;90952.09;2109883;28;20024;-84
2024/03/10 01:19:39;;;;;;;2.10;0.80;;;;;;;6.62;100.00;90950.78;2106478;28;20481;-83
2024/03/10 01:20:40;;;;;;;1.10;0.90;;;;;;;6.62;100.00;90944.72;2104436;28;20020;-85
2024/03/10 01:21:46;;;;;;;1.40;0.90;;;;;;;6.67;100.00;90952.09;2092772;28;20029;-87
2024/03/10 01:22:47;;;;;;;0.90;0.90;;;;;;;6.65;100.00;90949.16;2091137;28;20052;-84
2024/03/10 01:23:48;;;;;;;1.75;0.98;;;;;;;6.55;100.00;90946.53;2095597;28;20016;-81
2024/03/10 01:24:49;;;;;;;0.80;0.80;;;;;;;6.46;100.00;90949.19;2095408;28;20021;-81
2024/03/10 01:25:50;;;;;;;0.90;0.70;;;;;;;6.57;100.00;90944.16;2093699;28;20027;-82
2024/03/10 01:26:51;;;;;;;1.23;0.70;;;;;;;6.61;100.00;90945.91;2110286;28;20176;-85
2024/03/10 01:27:52;;;;;;;0.65;0.57;;;;;;;6.56;100.00;90944.59;2111749;28;20014;-87
2024/03/10 01:28:53;;;;;;;0.50;0.50;;;;;;;6.61;100.00;90944.00;2107529;28;20027;-84
2024/03/10 01:29:55;;;;;;;0.60;0.60;;;;;;;6.57;100.00;90946.06;2105948;28;20023;-82
2024/03/10 01:30:56;;;;;;;0.73;0.60;;;;;;;6.54;100.00;90937.09;2104568;28;20020;-81
2024/03/10 01:31:57;;;;;;;2.17;0.68;;;;;;;6.56;100.00;90934.72;2104504;28;20020;-81
2024/03/10 01:32:58;;;;;;;0.60;0.60;;;;;;;6.73;100.00;90929.09;2094364;28;20090;-80
2024/03/10 01:33:59;;;;;;;1.48;0.70;;;;;;;6.66;100.00;90935.44;2102699;28;20369;-84
2024/03/10 01:35:00;;;;;;;0.70;0.70;;;;;;;6.71;100.00;90934.84;2098811;28;20044;-85
2024/03/10 01:36:04;;;;;;;0.65;0.65;;;;;;;6.72;100.00;90933.69;2096983;28;20474;-84
2024/03/10 01:37:05;;;;;;;0.60;0.60;;;;;;;6.80;100.00;90931.44;2108253;28;20030;-83
2024/03/10 01:38:07;;;;;;;1.48;0.70;;;;;;;6.70;100.00;90922.03;2099601;28;20512;-85
2024/03/10 01:39:08;;;;;;;1.10;0.60;;;;;;;6.67;100.00;90922.91;2107759;28;20063;-82
2024/03/10 01:40:09;;;;;;;0.77;0.60;;;;;;;6.67;100.00;90918.34;2104212;28;20030;-84
2024/03/10 01:41:13;;;;;;;1.05;0.65;;;;;;;6.67;100.00;90917.59;2099962;28;20020;-84
2024/03/10 01:42:16;;;;;;;1.20;0.70;;;;;;;6.65;100.00;90909.34;2096641;28;20024;-85
2024/03/10 01:43:16;;;;;;;0.50;0.50;;;;;;;6.54;100.00;90901.81;2091747;28;20143;-85
2024/03/10 01:44:17;;;;;;;0.70;0.70;;;;;;;6.54;100.00;90902.59;2095078;28;20028;-85
2024/03/10 01:45:18;;;;;;;0.60;0.60;;;;;;;6.55;100.00;90905.97;2101890;28;20469;-83
2024/03/10 01:46:21;;;;;;;0.63;0.63;;;;;;;6.51;100.00;90898.16;2101618;28;20408;-83
2024/03/10 01:47:22;;;;;;;0.52;0.52;;;;;;;6.52;100.00;90893.59;2095812;28;20567;-83
2024/03/10 01:48:23;;;;;;;0.55;0.55;;;;;;;6.75;100.00;90892.94;2107850;28;20059;-87
2024/03/10 01:49:24;;;;;;;0.88;0.70;;;;;;;6.79;100.00;90898.84;2110773;28;20034;-83
2024/03/10 01:50:25;;;;;;;0.70;0.70;;;;;;;6.72;100.00;90893.84;2105620;28;20503;-84
2024/03/10 01:51:26;;;;;;;0.82;0.70;;;;;;;6.57;100.00;90888.41;2112621;28;20032;-83
2024/03/10 01:52:30;;;;;;;0.65;0.65;;;;;;;6.63;100.00;90893.13;2093447;28;20016;-84
2024/03/10 01:53:32;;;;;;;0.52;0.52;;;;;;;6.57;100.00;90883.09;2092883;28;20027;-83
2024/03/10 01:54:34;;;;;;;1.02;0.70;;;;;;;6.53;100.00;90879.84;2110672;28;20484;-85
2024/03/10 01:55:37;;;;;;;0.60;0.60;;;;;;;6.49;100.00;90881.19;2113750;28;20110;-84
2024/03/10 01:56:39;;;;;;;0.63;0.60;;;;;;;6.51;100.00;90882.22;2100005;28;20766;-84
2024/03/10 01:57:42;;;;;;;0.73;0.63;;;;;;;6.55;100.00;90879.44;2106714;28;21386;-85
2024/03/10 01:58:44;;;;;;;0.50;0.50;;;;;;;6.43;100.00;90873.09;2098369;28;20036;-85
2024/03/10 01:59:48;;;;;;;1.75;0.70;;;;;;;6.54;100.00;90869.97;2096860;28;20481;-84
2024/03/10 02:00:51;;;;;;;1.95;0.70;;;;;;;6.51;100.00;90863.66;2104886;28;20052;-84
2024/03/10 02:01:54;;;;;;;0.57;0.57;;;;;;;6.53;100.00;90871.91;2112279;28;20031;-85
2024/03/10 02:02:57;;;;;;;0.60;0.60;;;;;;;6.48;100.00;90859.22;2109962;28;20027;-85
2024/03/10 02:03:58;;;;;;;0.60;0.60;;;;;;;6.43;100.00;90853.78;2100457;28;20040;-82
2024/03/10 02:04:59;;;;;;;1.13;0.60;;;;;;;6.37;100.00;90853.66;2105645;28;20028;-83
2024/03/10 02:06:01;;;;;;;1.73;0.57;;;;;;;6.36;100.00;90851.44;2097390;28;20058;-83
2024/03/10 02:07:03;;;;;;;0.60;0.60;;;;;;;6.41;100.00;90856.13;2104213;28;20341;-81
2024/03/10 02:08:05;;;;;;;0.88;0.60;;;;;;;6.31;100.00;90852.75;2109945;28;20078;-86
2024/03/10 02:09:06;;;;;;;0.95;0.80;;;;;;;6.20;100.00;90861.19;2103654;28;20471;-86
2024/03/10 02:10:08;;;;;;;3.00;0.90;;;;;;;6.31;100.00;90863.38;2099393;28;20021;-87
2024/03/10 02:11:12;;;;;;;1.23;0.90;;;;;;;6.27;100.00;90860.88;2110539;28;20019;-85
2024/03/10 02:12:13;;;;;;;0.60;0.60;;;;;;;6.31;100.00;90864.09;2103977;28;20089;-86
2024/03/10 02:13:17;;;;;;;1.40;0.70;;;;;;;6.22;100.00;90860.72;2092127;28;20017;-81
2024/03/10 02:14:18;;;;;;;0.65;0.65;;;;;;;6.26;100.00;90859.41;2099245;28;20061;-82
2024/03/10 02:15:23;;;;;;;1.55;0.60;;;;;;;6.25;100.00;90855.28;2105278;28;20024;-82
2024/03/10 02:16:24;;;;;;;0.93;0.70;;;;;;;6.29;100.00;90858.53;2100211;28;20032;-82
2024/03/10 02:17:25;;;;;;;0.93;0.63;;;;;;;6.23;100.00;90855.00;2105297;28;20110;-83
2024/03/10 02:18:26;;;;;;;0.73;0.70;;;;;;;6.20;100.00;90858.53;2099017;28;20097;-84
2024/03/10 02:19:27;;;;;;;1.55;0.90;;;;;;;6.17;100.00;90856.75;2095344;28;20116;-84
2024/03/10 02:20:30;;;;;;;0.70;0.70;;;;;;;6.15;100.00;90853.81;2094068;28;20020;-85
2024/03/10 02:21:31;;;;;;;0.88;0.70;;;;;;;6.35;100.00;90853.34;2103469;28;20120;-84
2024/03/10 02:22:32;;;;;;;0.60;0.60;;;;;;;6.17;100.00;90848.06;2093901;28;20074;-86
2024/03/10 02:23:42;;;;;;;0.77;0.77;;;;;;;6.10;100.00;90835.81;2093837;28;20523;-83
2024/03/10 02:24:47;;;;;;;0.70;0.70;;;;;;;5.93;100.00;90835.41;2105529;28;20031;-84
2024/03/10 02:27:07;;;;;;;;;;;;;;;4.75;100.00;90832.03;2137710;27;20118;-81
2024/03/10 02:28:20;;;;;;;0.98;0.80;;;;;;;4.70;100.00;90835.25;2024300;27;19919;-80
2024/03/10 02:29:22;;;;;;;0.80;0.80;;;;;;;4.73;100.00;90838.91;2087433;27;20061;-81
2024/03/10 02:30:31;;;;;;;0.70;0.70;;;;;;;4.70;100.00;90834.50;2011156;27;20043;-81
2024/03/10 02:47:29;;;;;;;1.17;0.70;;;;;;;4.68;100.00;90815.66;1996145;27;20034;-81
2024/03/10 02:48:32;;;;;;;2.67;0.70;;;;;;;4.66;100.00;90823.31;2017614;27;20023;-80
2024/03/10 02:49:33;;;;;;;1.00;0.90;;;;;;;4.69;100.00;90814.50;1927854;27;22185;-81
2024/03/10 02:50:34;;;;;;;0.98;0.90;;;;;;;4.63;100.00;90811.69;1953379;27;20424;-80
2024/03/10 02:51:36;;;;;;;0.85;0.85;;;;;;;4.56;100.00;90811.94;1977168;27;20027;-81
2024/03/10 02:52:37;;;;;;;0.98;0.90;;;;;;;4.57;100.00;90802.09;1930379;27;22310;-80
2024/03/10 02:53:38;;;;;;;1.13;0.80;;;;;;;4.53;100.00;90800.31;1890571;27;20108;-81
2024/03/10 02:54:39;;;;;;;0.77;0.77;;;;;;;4.58;100.00;90795.66;1852681;27;20138;-80
2024/03/10 02:55:40;;;;;;;0.90;0.77;;;;;;;4.47;100.00;90786.16;1893183;27;20396;-80
2024/03/10 02:56:42;;;;;;;1.25;0.80;;;;;;;4.48;100.00;90798.25;1869712;27;20140;-80
2024/03/10 02:57:47;;;;;;;0.70;0.70;;;;;;;4.37;100.00;90789.94;1877441;27;23400;-80
2024/03/10 02:58:48;;;;;;;0.85;0.80;;;;;;;4.41;100.00;90795.13;1895803;27;21111;-79
2024/03/10 02:59:49;;;;;;;0.80;0.73;;;;;;;4.42;100.00;90791.28;1895340;27;20019;-80
2024/03/10 03:00:50;;;;;;;2.17;0.80;;;;;;;4.49;100.00;90789.13;1981675;27;20150;-80
2024/03/10 03:01:51;;;;;;;0.73;0.73;;;;;;;4.45;100.00;90793.81;1956223;28;21993;-79
2024/03/10 03:02:52;;;;;;;1.25;0.85;;;;;;;4.46;100.00;90791.91;2003863;27;20072;-81
2024/03/10 03:03:53;;;;;;;0.95;0.70;;;;;;;4.40;100.00;90794.38;2026465;28;20126;-79
2024/03/10 03:04:54;;;;;;;1.13;0.90;;;;;;;4.38;100.00;90795.97;2031176;27;20130;-79
2024/03/10 03:05:55;;;;;;;1.15;1.00;;;;;;;4.35;100.00;90799.50;2060172;27;20025;-79
2024/03/10 03:06:56;;;;;;;1.08;0.95;;;;;;;4.22;100.00;90799.56;2041205;27;20031;-80
2024/03/10 03:07:59;;;;;;;1.50;0.82;;;;;;;4.24;100.00;90790.03;2026730;28;20036;-80
2024/03/10 03:09:04;;;;;;;1.35;1.02;;;;;;;4.34;100.00;90798.00;2022299;28;20066;-80
2024/03/10 03:10:05;;;;;;;0.82;0.82;;;;;;;4.31;100.00;90796.97;2015983;27;20028;-80
2024/03/10 03:11:09;;;;;;;0.88;0.88;;;;;;;4.48;100.00;90792.22;2026616;27;20019;-79
2024/03/10 03:12:10;;;;;;;1.25;1.00;;;;;;;4.41;100.00;90800.41;2022025;28;20032;-81
2024/03/10 03:13:11;;;;;;;0.80;0.77;;;;;;;4.35;100.00;90794.94;2028509;28;20031;-80
2024/03/10 03:14:13;;;;;;;0.90;0.90;;;;;;;4.29;100.00;90794.03;2033249;27;20913;-80
2024/03/10 03:15:17;;;;;;;1.90;0.80;;;;;;;4.23;100.00;90795.75;2033034;28;20023;-79
2024/03/10 03:16:18;;;;;;;0.80;0.80;;;;;;;4.21;100.00;90787.50;1977236;27;20116;-80
2024/03/10 03:17:19;;;;;;;0.73;0.73;;;;;;;4.23;100.00;90785.91;1966974;28;20038;-79
2024/03/10 03:18:20;;;;;;;1.00;0.88;;;;;;;4.23;100.00;90783.28;2005777;27;20031;-79
2024/03/10 03:19:22;;;;;;;2.08;0.90;;;;;;;4.25;100.00;90788.13;2032082;27;20076;-79
2024/03/10 03:20:24;;;;;;;0.98;0.82;;;;;;;4.15;100.00;90782.03;2091270;27;20468;-79
2024/03/10 03:21:25;;;;;;;1.33;0.82;;;;;;;4.18;100.00;90783.84;2097856;28;20032;-80
2024/03/10 03:22:26;;;;;;;0.90;0.73;;;;;;;4.06;100.00;90774.06;2097111;28;20146;-80
2024/03/10 03:23:27;;;;;;;1.15;1.05;;;;;;;4.23;100.00;90771.97;2102737;28;20027;-79
2024/03/10 03:24:28;;;;;;;2.35;0.98;;;;;;;4.13;100.00;90767.81;2109699;28;20023;-79
2024/03/10 03:25:31;;;;;;;1.80;0.90;;;;;;;4.09;100.00;90767.19;2119383;27;20390;-80
2024/03/10 03:26:32;;;;;;;1.00;0.90;;;;;;;4.12;100.00;90763.66;2082518;27;20100;-81
2024/03/10 03:27:35;;;;;;;1.35;0.90;;;;;;;4.10;100.00;90761.47;2091896;28;20085;-80
2024/03/10 03:28:36;;;;;;;0.90;0.90;;;;;;;4.23;100.00;90761.38;2066842;27;20051;-80
2024/03/10 03:29:37;;;;;;;1.00;0.98;;;;;;;4.07;100.00;90753.66;2050845;27;20026;-78
2024/03/10 03:30:42;;;;;;;0.93;0.80;;;;;;;3.99;100.00;90742.59;2054083;27;20031;-80
2024/03/10 03:31:43;;;;;;;0.90;0.90;;;;;;;4.06;100.00;90746.91;2052431;27;20043;-79
2024/03/10 03:32:44;;;;;;;1.23;0.85;;;;;;;4.13;100.00;90736.09;2075907;27;20265;-79
2024/03/10 03:33:45;;;;;;;0.73;0.73;;;;;;;4.05;100.00;90738.25;2083922;27;20777;-80
2024/03/10 03:34:47;;;;;;;1.50;1.00;;;;;;;4.09;100.00;90730.19;2092977;27;20031;-81
2024/03/10 03:35:48;;;;;;;1.10;1.00;;;;;;;4.10;100.00;90724.47;2089478;27;20072;-79
2024/03/10 03:36:49;;;;;;;0.85;0.80;;;;;;;4.00;100.00;90728.22;2086667;28;20353;-80
2024/03/10 03:37:50;;;;;;;1.00;0.90;;;;;;;4.03;100.00;90728.09;2089887;28;20060;-79
2024/03/10 03:38:51;;;;;;;1.10;0.90;;;;;;;3.98;100.00;90720.72;2111753;28;20383;-81
2024/03/10 03:39:53;;;;;;;0.85;0.85;;;;;;;4.02;100.00;90725.88;2123498;27;20022;-80
2024/03/10 03:40:54;;;;;;;0.90;0.90;;;;;;;3.92;100.00;90714.53;2113244;28;20031;-80
2024/03/10 03:41:55;;;;;;;1.02;0.93;;;;;;;3.89;100.00;90715.38;2123585;27;20034;-80
2024/03/10 03:42:56;;;;;;;0.80;0.80;;;;;;;3.87;100.00;90709.81;2130290;27;20019;-80
2024/03/10 03:43:59;;;;;;;0.80;0.80;;;;;;;3.84;100.00;90710.66;2121458;27;20011;-81
2024/03/10 03:45:00;;;;;;;0.80;0.80;;;;;;;3.88;100.00;90700.72;2121570;27;20026;-80
2024/03/10 03:46:01;;;;;;;0.82;0.82;;;;;;;3.89;100.00;90702.16;2114080;28;20019;-79
2024/03/10 03:47:02;;;;;;;0.82;0.82;;;;;;;3.85;100.00;90690.25;2104527;28;20099;-80
2024/03/10 03:48:04;;;;;;;0.90;0.90;;;;;;;3.85;100.00;90693.63;2110765;28;20051;-80
2024/03/10 03:49:05;;;;;;;0.98;0.90;;;;;;;3.77;100.00;90693.16;2111081;28;20019;-80
2024/03/10 03:50:07;;;;;;;1.02;0.90;;;;;;;3.71;100.00;90688.88;2104186;28;20024;-81
2024/03/10 03:51:08;;;;;;;1.10;1.00;;;;;;;3.70;100.00;90684.75;2098713;28;20048;-80
2024/03/10 03:52:09;;;;;;;0.98;0.98;;;;;;;3.77;100.00;90681.84;2098235;28;20066;-79
2024/03/10 03:53:10;;;;;;;1.60;1.10;;;;;;;3.82;100.00;90675.25;2106445;28;20856;-80
2024/03/10 03:54:12;;;;;;;0.90;0.90;;;;;;;3.79;100.00;90679.53;2113414;28;20012;-81
2024/03/10 03:55:31;;;;;;;1.00;0.95;;;;;;;3.83;100.00;90680.13;2115006;27;20031;-79
2024/03/10 03:56:32;;;;;;;1.63;1.13;;;;;;;3.85;100.00;90672.50;2106958;28;20051;-81
2024/03/10 03:57:33;;;;;;;1.42;0.95;;;;;;;3.81;100.00;90666.59;2108051;27;20101;-81
2024/03/10 03:58:34;;;;;;;0.80;0.80;;;;;;;3.78;100.00;90680.69;2120447;27;20043;-81
2024/03/10 03:59:38;;;;;;;0.85;0.85;;;;;;;3.70;100.00;90676.84;2111702;28;20020;-80
2024/03/10 04:00:40;;;;;;;1.20;1.10;;;;;;;3.80;100.00;90683.63;2111511;27;20023;-80
2024/03/10 04:01:42;;;;;;;0.90;0.90;;;;;;;3.81;100.00;90687.75;2109140;27;20080;-83
2024/03/10 04:02:46;;;;;;;1.10;1.00;;;;;;;3.85;100.00;90695.53;2111458;27;20028;-80
2024/03/10 04:03:47;;;;;;;0.90;0.90;;;;;;;3.88;100.00;90700.72;2121282;27;20043;-80
2024/03/10 04:04:49;;;;;;;1.27;1.17;;;;;;;3.97;100.00;90713.22;2120648;27;20087;-80
2024/03/10 04:05:51;;;;;;;1.13;1.05;;;;;;;3.92;100.00;90719.09;2120812;27;20102;-81
2024/03/10 04:06:53;;;;;;;1.10;1.00;;;;;;;3.86;100.00;90713.59;2121726;27;20019;-79
2024/03/10 04:07:54;;;;;;;1.00;0.90;;;;;;;3.83;100.00;90708.47;2104299;28;20165;-80
2024/03/10 04:08:55;;;;;;;1.17;1.00;;;;;;;3.77;100.00;90706.34;2110555;28;20049;-81
2024/03/10 04:09:56;;;;;;;1.17;1.08;;;;;;;3.80;100.00;90694.19;2117073;27;20377;-79
2024/03/10 04:10:58;;;;;;;2.20;0.82;;;;;;;3.86;100.00;90697.75;2120671;27;20115;-80
2024/03/10 04:11:59;;;;;;;1.98;1.10;;;;;;;3.88;100.00;90694.69;2112931;28;20118;-80
2024/03/10 04:13:00;;;;;;;1.40;1.10;;;;;;;3.84;100.00;90688.78;2103210;28;20142;-80
2024/03/10 04:14:01;;;;;;;1.00;0.90;;;;;;;3.87;100.00;90703.78;2113568;28;20483;-81
2024/03/10 04:15:03;;;;;;;1.17;1.00;;;;;;;4.02;100.00;90696.81;2120248;27;20667;-80
2024/03/10 04:16:06;;;;;;;1.10;1.00;;;;;;;4.03;100.00;90703.56;2119818;27;20038;-81
2024/03/10 04:17:07;;;;;;;1.17;1.08;;;;;;;3.94;100.00;90698.97;2121124;27;20019;-81
2024/03/10 04:18:08;;;;;;;1.15;1.05;;;;;;;3.96;100.00;90696.63;2114664;27;20786;-79
2024/03/10 04:19:09;;;;;;;0.90;0.90;;;;;;;4.01;100.00;90690.78;2112814;28;20324;-80
2024/03/10 04:20:12;;;;;;;1.00;0.90;;;;;;;3.93;100.00;90700.13;2115048;27;20023;-79
2024/03/10 04:21:13;;;;;;;1.17;1.08;;;;;;;3.80;100.00;90704.75;2104529;28;20020;-81
2024/03/10 04:22:14;;;;;;;2.67;1.15;;;;;;;3.83;100.00;90713.75;2097971;28;20031;-81
2024/03/10 04:23:16;;;;;;;0.70;0.70;;;;;;;3.87;100.00;90720.38;2104342;28;20483;-80
2024/03/10 04:24:21;;;;;;;1.05;0.95;;;;;;;3.78;100.00;90720.31;2118992;27;20019;-79
2024/03/10 04:25:22;;;;;;;2.55;0.95;;;;;;;3.92;100.00;90727.75;2112499;28;20020;-80
2024/03/10 04:26:24;;;;;;;1.08;0.98;;;;;;;3.89;100.00;90728.59;2104063;28;20023;-80
2024/03/10 04:27:26;;;;;;;1.52;1.05;;;;;;;3.83;100.00;90729.59;2102742;28;20039;-80
2024/03/10 04:28:27;;;;;;;1.20;1.10;;;;;;;3.93;100.00;90733.75;2095138;28;20497;-80
2024/03/10 04:29:28;;;;;;;1.20;1.10;;;;;;;3.83;100.00;90740.91;2101685;28;20078;-81
2024/03/10 04:30:29;;;;;;;1.10;0.90;;;;;;;3.66;100.00;90752.81;2105639;28;20450;-80
2024/03/10 04:31:29;;;;;;;1.00;0.90;;;;;;;3.58;100.00;90754.22;2104903;28;20047;-81
2024/03/10 04:32:31;;;;;;;1.00;0.90;;;;;;;3.56;100.00;90759.94;2119360;27;20522;-81
2024/03/10 04:33:33;;;;;;;1.67;1.00;;;;;;;3.43;100.00;90762.63;2120196;27;20023;-79
2024/03/10 04:34:34;;;;;;;1.00;0.90;;;;;;;3.50;100.00;90759.00;2107724;28;20102;-80
2024/03/10 04:35:37;;;;;;;2.60;1.13;;;;;;;3.44;100.00;90747.53;2113002;27;20345;-79
2024/03/10 04:36:39;;;;;;;0.82;0.82;;;;;;;3.42;100.00;90750.56;2112713;28;20440;-80
2024/03/10 04:37:40;;;;;;;1.33;1.00;;;;;;;3.46;100.00;90739.91;2118090;27;20066;-80
2024/03/10 04:38:43;;;;;;;1.30;0.90;;;;;;;3.51;100.00;90742.75;2110251;28;20034;-80
2024/03/10 04:39:44;;;;;;;2.00;1.40;;;;;;;3.45;100.00;90733.88;2096359;28;20487;-80
2024/03/10 04:40:45;;;;;;;1.45;1.08;;;;;;;3.40;100.00;90736.34;2106574;28;20043;-80
2024/03/10 04:41:47;;;;;;;1.08;1.00;;;;;;;3.38;100.00;90739.44;2110425;28;20325;-80
2024/03/10 04:42:48;;;;;;;0.82;0.82;;;;;;;3.29;100.00;90741.97;2119090;27;20459;-80
2024/03/10 04:43:49;;;;;;;1.48;1.13;;;;;;;3.16;100.00;90733.34;2119027;27;20068;-80
2024/03/10 04:44:50;;;;;;;1.30;1.10;;;;;;;3.20;100.00;90736.63;2119645;27;20019;-80
2024/03/10 04:45:53;;;;;;;0.90;0.90;;;;;;;3.18;100.00;90739.69;2108251;28;20031;-79
2024/03/10 04:46:54;;;;;;;1.00;1.00;;;;;;;3.38;100.00;90743.94;2094112;28;20045;-80
2024/03/10 04:47:56;;;;;;;1.00;1.00;;;;;;;3.27;100.00;90741.66;2100156;28;20016;-81
2024/03/10 04:48:57;;;;;;;1.10;1.00;;;;;;;3.28;100.00;90735.94;2118300;27;20037;-80
2024/03/10 04:49:58;;;;;;;1.05;0.95;;;;;;;3.21;100.00;90738.09;2119020;27;20035;-80
2024/03/10 04:50:59;;;;;;;1.42;1.20;;;;;;;3.26;100.00;90732.28;2122112;27;20997;-80
2024/03/10 04:52:00;;;;;;;1.00;1.00;;;;;;;3.23;100.00;90722.56;2110352;28;20082;-80
2024/03/10 04:53:01;;;;;;;1.30;1.00;;;;;;;3.17;100.00;90721.66;2113315;28;20414;-81
2024/03/10 04:54:05;;;;;;;1.92;1.08;;;;;;;3.19;100.00;90724.59;2105683;28;20058;-80
2024/03/10 04:55:06;;;;;;;1.20;1.10;;;;;;;3.18;100.00;90713.28;2094641;28;20024;-80
2024/03/10 04:56:09;;;;;;;0.90;0.90;;;;;;;3.20;100.00;90712.84;2101916;28;20056;-80
2024/03/10 04:57:10;;;;;;;1.10;1.00;;;;;;;3.16;100.00;90713.00;2099925;28;20011;-80
2024/03/10 04:58:11;;;;;;;3.30;1.13;;;;;;;3.17;100.00;90711.09;2112241;28;20023;-79
2024/03/10 04:59:12;;;;;;;1.92;1.10;;;;;;;3.07;100.00;90714.81;2110460;28;20019;-81
2024/03/10 05:00:16;;;;;;;1.10;1.00;;;;;;;3.23;100.00;90712.75;2104525;28;20111;-80
2024/03/10 05:01:19;;;;;;;1.20;1.10;;;;;;;3.09;100.00;90729.06;2098501;28;20035;-80
2024/03/10 05:02:20;;;;;;;1.25;1.10;;;;;;;3.18;100.00;90712.56;2104645;28;20230;-80
2024/03/10 05:03:22;;;;;;;1.90;1.10;;;;;;;3.43;100.00;90706.44;2102717;28;20032;-79
2024/03/10 05:04:23;;;;;;;2.90;1.20;;;;;;;3.44;100.00;90700.00;2113341;28;20024;-80
2024/03/10 05:05:24;;;;;;;1.20;1.10;;;;;;;3.43;100.00;90696.63;2120528;27;20066;-80
2024/03/10 05:06:26;;;;;;;1.70;1.20;;;;;;;3.40;100.00;90692.19;2117714;27;20332;-79
2024/03/10 05:07:27;;;;;;;1.20;1.10;;;;;;;3.39;100.00;90696.00;2116251;27;20114;-81
2024/03/10 05:08:27;;;;;;;1.33;1.13;;;;;;;3.34;100.00;90699.19;2116446;27;20026;-81